METAR Data
IDs: Format: Raw Decoded Include TAF

Data at: 0217 UTC 12 May 2021

METAR for:TUPJ (Beef Isl/Lettsome In, VI, UK)
Text:TUPJ 120100Z 09007KT 10SM SCT019 SCT040 26/23 A3007 RMK Q1018 VIS16KM
Temperature: 26.0°C ( 79°F)
Dewpoint: 23.0°C ( 73°F) [RH = 84%]
Pressure (altimeter):30.07 inches Hg (1018.4 mb)
Winds:from the E (90 degrees) at 8 MPH (7 knots; 3.6 m/s)
Visibility:10 or more sm (16+ km)
Ceiling:at least 12,000 feet AGL
Clouds: scattered clouds at 1900 feet AGL, scattered clouds at 4000 feet AGL